createdAt,value
2019-05-11T00:00:19.942Z,14.40
2019-05-11T00:01:00.753Z,12.53
2019-05-11T00:01:19.972Z,17.40
2019-05-11T00:02:19.965Z,14.20
2019-05-11T00:03:19.992Z,17.10
2019-05-11T00:03:29.717Z,13.90
2019-05-11T00:04:20.008Z,13.60
2019-05-11T00:05:20.016Z,14.90
2019-05-11T00:05:58.722Z,14.33
2019-05-11T00:06:20.087Z,14.00
2019-05-11T00:07:20.051Z,17.10
2019-05-11T00:08:20.086Z,15.20
2019-05-11T00:08:27.790Z,15.77
2019-05-11T00:09:20.087Z,18.20
2019-05-11T00:10:23.370Z,14.20
2019-05-11T00:10:56.881Z,13.63
2019-05-11T00:11:20.135Z,15.20
2019-05-11T00:12:20.135Z,16.60
2019-05-11T00:13:20.153Z,15.90
2019-05-11T00:13:25.875Z,14.07
2019-05-11T00:14:20.174Z,13.90
2019-05-11T00:15:20.191Z,13.10
2019-05-11T00:15:54.791Z,14.23
2019-05-11T00:16:20.204Z,13.60
2019-05-11T00:17:20.217Z,14.20
2019-05-11T00:18:20.237Z,14.80
2019-05-11T00:18:23.862Z,14.17
2019-05-11T00:19:20.249Z,14.70
2019-05-11T00:20:20.319Z,15.00
2019-05-11T00:20:52.748Z,14.77
2019-05-11T00:21:20.290Z,14.90
2019-05-11T00:22:20.303Z,15.30
2019-05-11T00:23:20.315Z,15.60
2019-05-11T00:23:21.762Z,13.80
2019-05-11T00:24:20.334Z,15.90
2019-05-11T00:25:20.350Z,15.70
2019-05-11T00:25:50.627Z,15.27
2019-05-11T00:26:20.367Z,17.70
2019-05-11T00:27:20.379Z,14.50
2019-05-11T00:28:19.619Z,14.67
2019-05-11T00:28:20.396Z,15.00
2019-05-11T00:29:20.418Z,16.20
2019-05-11T00:30:20.434Z,13.60
2019-05-11T00:30:48.610Z,14.33
2019-05-11T00:31:20.450Z,14.50
2019-05-11T00:32:22.798Z,16.60
2019-05-11T00:33:17.619Z,15.87
2019-05-11T00:33:20.482Z,12.90
2019-05-11T00:34:20.497Z,16.80
2019-05-11T00:35:20.513Z,16.60
2019-05-11T00:35:46.604Z,14.10
2019-05-11T00:36:20.532Z,15.20
2019-05-11T00:37:20.546Z,18.70
2019-05-11T00:38:15.601Z,15.73
2019-05-11T00:38:20.561Z,16.60
2019-05-11T00:39:20.578Z,13.40
2019-05-11T00:40:20.596Z,16.50
2019-05-11T00:40:44.527Z,15.17
2019-05-11T00:41:20.616Z,15.10
2019-05-11T00:42:20.639Z,13.90
2019-05-11T00:43:13.483Z,16.03
2019-05-11T00:43:20.641Z,14.20
2019-05-11T00:44:20.686Z,16.40
2019-05-11T00:45:20.678Z,14.40
2019-05-11T00:45:42.472Z,15.50
2019-05-11T00:46:20.771Z,15.90
2019-05-11T00:47:20.713Z,14.70
2019-05-11T00:48:11.627Z,14.07
2019-05-11T00:48:20.735Z,16.20
2019-05-11T00:49:20.747Z,15.60
2019-05-11T00:50:20.756Z,15.70
2019-05-11T00:50:40.561Z,15.83
2019-05-11T00:51:20.785Z,16.40
2019-05-11T00:52:20.790Z,15.90
2019-05-11T00:53:09.535Z,17.77
2019-05-11T00:53:20.803Z,16.40
2019-05-11T00:54:20.819Z,15.80
2019-05-11T00:55:20.836Z,17.00
2019-05-11T00:55:38.430Z,16.17
2019-05-11T00:56:20.859Z,14.00
2019-05-11T00:57:20.878Z,17.40
2019-05-11T00:58:07.437Z,15.13
2019-05-11T00:58:20.885Z,15.20
2019-05-11T00:59:22.110Z,16.60
2019-05-11T01:00:20.920Z,14.90
2019-05-11T01:00:36.415Z,15.50
2019-05-11T01:01:20.938Z,19.20
2019-05-11T01:02:20.953Z,18.90
2019-05-11T01:03:05.607Z,15.10
2019-05-11T01:03:20.967Z,16.60
2019-05-11T01:04:20.989Z,16.50
2019-05-11T01:05:21.017Z,15.80
2019-05-11T01:05:34.617Z,14.60
2019-05-11T01:06:21.128Z,14.60
2019-05-11T01:07:21.034Z,14.50
2019-05-11T01:08:03.633Z,15.53
2019-05-11T01:08:21.053Z,14.70
2019-05-11T01:09:21.126Z,15.00
2019-05-11T01:10:25.517Z,15.60
2019-05-11T01:10:41.677Z,16.10
2019-05-11T01:11:21.099Z,14.50
2019-05-11T01:12:21.110Z,17.20
2019-05-11T01:13:03.142Z,16.30
2019-05-11T01:13:21.158Z,15.70
2019-05-11T01:14:21.146Z,14.20
2019-05-11T01:15:21.165Z,15.80
2019-05-11T01:15:32.124Z,14.70
2019-05-11T01:16:21.175Z,15.10
2019-05-11T01:17:21.200Z,18.10
2019-05-11T01:18:01.213Z,15.27
2019-05-11T01:18:21.208Z,16.10
2019-05-11T01:19:21.234Z,17.20
2019-05-11T01:20:21.253Z,15.50
2019-05-11T01:20:30.104Z,15.20
2019-05-11T01:21:21.260Z,15.70
2019-05-11T01:22:21.276Z,15.90
2019-05-11T01:22:59.109Z,14.57
2019-05-11T01:23:21.296Z,14.80
2019-05-11T01:24:21.312Z,16.00
2019-05-11T01:25:21.329Z,16.20
2019-05-11T01:25:28.085Z,14.43
2019-05-11T01:26:21.338Z,16.30
2019-05-11T01:27:21.357Z,14.10
2019-05-11T01:27:56.962Z,15.50
2019-05-11T01:28:21.373Z,14.90
2019-05-11T01:29:21.390Z,15.60
2019-05-11T01:30:21.402Z,17.10
2019-05-11T01:30:25.968Z,16.30
2019-05-11T01:31:21.418Z,18.50
2019-05-11T01:32:21.445Z,18.20
2019-05-11T01:32:54.884Z,15.53
2019-05-11T01:33:21.450Z,15.40
2019-05-11T01:34:21.514Z,14.90
2019-05-11T01:35:21.494Z,14.80
2019-05-11T01:35:23.833Z,15.23
2019-05-11T01:36:21.500Z,15.30
2019-05-11T01:37:21.520Z,14.10
2019-05-11T01:37:52.727Z,16.63
2019-05-11T01:38:21.537Z,14.60
2019-05-11T01:39:21.569Z,14.70
2019-05-11T01:40:21.574Z,14.40
2019-05-11T01:40:21.714Z,15.67
2019-05-11T01:41:21.586Z,17.30
2019-05-11T01:42:21.594Z,15.30
2019-05-11T01:42:50.707Z,14.13
2019-05-11T01:43:21.611Z,16.40
2019-05-11T01:44:21.633Z,14.50
2019-05-11T01:45:19.700Z,16.63
2019-05-11T01:45:21.647Z,18.20
2019-05-11T01:46:21.662Z,16.80
2019-05-11T01:47:21.683Z,19.20
2019-05-11T01:47:48.705Z,15.37
2019-05-11T01:48:21.691Z,16.50
2019-05-11T01:49:21.713Z,17.80
2019-05-11T01:50:17.683Z,14.90
2019-05-11T01:50:21.728Z,17.50
2019-05-11T01:51:21.743Z,14.40
2019-05-11T01:52:21.755Z,15.60
2019-05-11T01:52:46.546Z,16.23
2019-05-11T01:53:21.777Z,17.00
2019-05-11T01:54:21.789Z,19.60
2019-05-11T01:55:15.461Z,16.00
2019-05-11T01:55:21.805Z,17.70
2019-05-11T01:56:21.821Z,16.70
2019-05-11T01:57:21.842Z,15.80
2019-05-11T01:57:44.454Z,16.57
2019-05-11T01:58:21.853Z,16.50
2019-05-11T01:59:21.872Z,16.80
2019-05-11T02:00:13.444Z,15.50
2019-05-11T02:00:21.888Z,16.40
2019-05-11T02:01:21.912Z,18.70
2019-05-11T02:02:21.920Z,17.40
2019-05-11T02:02:42.332Z,16.73
2019-05-11T02:03:21.931Z,15.90
2019-05-11T02:04:21.953Z,16.80
2019-05-11T02:05:21.973Z,17.90
2019-05-11T02:05:29.908Z,15.80
2019-05-11T02:06:21.981Z,17.40
2019-05-11T02:07:22.002Z,16.80
2019-05-11T02:07:59.730Z,15.97
2019-05-11T02:08:22.025Z,17.70
2019-05-11T02:09:22.030Z,17.10
2019-05-11T02:10:22.050Z,16.00
2019-05-11T02:10:29.076Z,15.90
2019-05-11T02:11:22.066Z,17.90
2019-05-11T02:12:22.082Z,19.00
2019-05-11T02:12:58.069Z,16.07
2019-05-11T02:13:22.094Z,16.20
2019-05-11T02:14:22.114Z,17.70
2019-05-11T02:15:22.141Z,15.70
2019-05-11T02:15:27.100Z,16.07
2019-05-11T02:16:22.145Z,19.50
2019-05-11T02:17:22.168Z,16.90
2019-05-11T02:17:56.067Z,16.17
2019-05-11T02:18:22.172Z,17.20
2019-05-11T02:19:22.197Z,16.90
2019-05-11T02:20:22.213Z,23.10
2019-05-11T02:20:25.039Z,17.17
2019-05-11T02:21:22.227Z,17.30
2019-05-11T02:22:22.246Z,19.50
2019-05-11T02:22:53.914Z,18.33
2019-05-11T02:23:22.260Z,15.80
2019-05-11T02:24:22.276Z,17.10
2019-05-11T02:25:22.293Z,19.30
2019-05-11T02:25:22.840Z,18.03
2019-05-11T02:26:22.309Z,18.40
2019-05-11T02:27:22.328Z,18.90
2019-05-11T02:27:51.824Z,17.83
2019-05-11T02:28:22.340Z,18.70
2019-05-11T02:29:22.359Z,15.70
2019-05-11T02:30:20.829Z,18.90
2019-05-11T02:30:22.381Z,16.40
2019-05-11T02:31:22.392Z,18.70
2019-05-11T02:32:22.405Z,16.90
2019-05-11T02:32:49.705Z,20.10
2019-05-11T02:33:22.425Z,18.50
2019-05-11T02:34:22.443Z,17.60
2019-05-11T02:35:18.687Z,16.87
2019-05-11T02:35:22.456Z,16.90
2019-05-11T02:36:22.478Z,16.80
2019-05-11T02:37:22.491Z,15.70
2019-05-11T02:37:47.532Z,17.13
2019-05-11T02:38:22.504Z,16.70
2019-05-11T02:39:22.520Z,15.90
2019-05-11T02:40:16.638Z,16.73
2019-05-11T02:40:22.533Z,15.00
2019-05-11T02:41:35.773Z,15.90
2019-05-11T02:42:22.581Z,15.50
2019-05-11T02:42:45.558Z,17.87
2019-05-11T02:43:22.579Z,17.00
2019-05-11T02:44:22.598Z,17.80
2019-05-11T02:45:15.991Z,17.10
2019-05-11T02:45:22.617Z,17.10
2019-05-11T02:46:22.634Z,17.30
2019-05-11T02:47:22.704Z,20.20
2019-05-11T02:47:44.877Z,24.23
2019-05-11T02:48:22.668Z,17.10
2019-05-11T02:49:22.683Z,18.10
2019-05-11T02:50:14.031Z,17.90
2019-05-11T02:50:22.699Z,17.20
2019-05-11T02:51:22.717Z,18.40
2019-05-11T02:52:22.738Z,17.20
2019-05-11T02:52:43.080Z,16.77
2019-05-11T02:53:22.766Z,16.70
2019-05-11T02:54:22.761Z,17.20
2019-05-11T02:55:12.175Z,18.67
2019-05-11T02:55:22.776Z,16.30
2019-05-11T02:56:22.792Z,15.90
2019-05-11T02:57:22.811Z,17.90
2019-05-11T02:57:41.052Z,16.20
2019-05-11T02:58:22.830Z,17.90
2019-05-11T02:59:22.841Z,17.30
2019-05-11T03:00:10.246Z,17.30
2019-05-11T03:00:22.899Z,18.90
2019-05-11T03:01:22.873Z,19.50
2019-05-11T03:02:22.886Z,16.40
2019-05-11T03:02:39.249Z,17.00
2019-05-11T03:03:22.906Z,18.40
2019-05-11T03:04:22.923Z,20.20
2019-05-11T03:05:08.740Z,18.10
2019-05-11T03:05:22.938Z,18.30
2019-05-11T03:06:22.956Z,18.70
2019-05-11T03:07:22.973Z,18.90
2019-05-11T03:07:37.631Z,17.90
2019-05-11T03:08:22.984Z,19.80
2019-05-11T03:09:23.006Z,20.20
2019-05-11T03:10:06.739Z,16.53
2019-05-11T03:10:23.128Z,19.20
2019-05-11T03:11:23.037Z,18.50
2019-05-11T03:12:23.048Z,18.70
2019-05-11T03:12:35.609Z,16.83
2019-05-11T03:13:23.071Z,21.50
2019-05-11T03:14:23.090Z,21.40
2019-05-11T03:15:04.914Z,18.83
2019-05-11T03:15:23.108Z,17.30
2019-05-11T03:16:23.117Z,18.70
2019-05-11T03:17:23.141Z,18.60
2019-05-11T03:17:34.180Z,19.00
2019-05-11T03:18:23.148Z,18.80
2019-05-11T03:19:23.167Z,19.40
2019-05-11T03:20:03.216Z,18.23
2019-05-11T03:20:23.184Z,20.00
2019-05-11T03:21:23.202Z,17.60
2019-05-11T03:22:23.223Z,22.10
2019-05-11T03:22:32.087Z,17.73
2019-05-11T03:23:23.236Z,19.00
2019-05-11T03:24:24.171Z,18.20
2019-05-11T03:25:01.080Z,19.33
2019-05-11T03:25:23.261Z,19.50
2019-05-11T03:26:23.277Z,19.60
2019-05-11T03:27:23.300Z,21.60
2019-05-11T03:27:29.955Z,18.57
2019-05-11T03:28:23.317Z,22.90
2019-05-11T03:29:23.327Z,19.90
2019-05-11T03:30:01.152Z,19.20
2019-05-11T03:30:23.358Z,19.20
2019-05-11T03:31:23.367Z,16.90
2019-05-11T03:32:23.414Z,18.40
2019-05-11T03:32:29.460Z,18.07
2019-05-11T03:33:23.389Z,19.90
2019-05-11T03:34:23.407Z,17.70
2019-05-11T03:34:58.395Z,21.13
2019-05-11T03:35:23.470Z,20.90
2019-05-11T03:36:23.438Z,18.50
2019-05-11T03:37:23.456Z,18.40
2019-05-11T03:37:27.267Z,17.97
2019-05-11T03:38:23.500Z,19.10
2019-05-11T03:39:23.543Z,20.10
2019-05-11T03:39:56.265Z,18.13
2019-05-11T03:40:23.737Z,17.50
2019-05-11T03:41:23.523Z,19.70
2019-05-11T03:42:23.542Z,21.40
2019-05-11T03:42:25.250Z,18.33
2019-05-11T03:43:23.565Z,21.50
2019-05-11T03:44:23.574Z,21.60
2019-05-11T03:44:54.352Z,17.90
2019-05-11T03:45:23.588Z,19.50
2019-05-11T03:46:23.600Z,18.20
2019-05-11T03:47:23.339Z,20.03
2019-05-11T03:47:23.617Z,19.20
2019-05-11T03:48:23.631Z,18.20
2019-05-11T03:49:23.650Z,24.80
2019-05-11T03:49:52.334Z,18.60
2019-05-11T03:50:23.664Z,21.00
2019-05-11T03:51:23.684Z,22.20
2019-05-11T03:52:21.221Z,16.80
2019-05-11T03:52:23.699Z,21.80
2019-05-11T03:53:23.710Z,20.80
2019-05-11T03:54:23.728Z,20.60
2019-05-11T03:54:50.218Z,17.50
2019-05-11T03:55:23.744Z,20.50
2019-05-11T03:56:23.762Z,22.10
2019-05-11T03:57:19.113Z,17.43
2019-05-11T03:57:23.785Z,18.90
2019-05-11T03:58:26.077Z,19.40
2019-05-11T03:59:23.810Z,17.40
2019-05-11T03:59:48.095Z,18.27
2019-05-11T04:00:23.824Z,22.50
2019-05-11T04:01:23.854Z,19.70
2019-05-11T04:02:17.086Z,18.90
2019-05-11T04:02:23.857Z,21.20
2019-05-11T04:03:23.881Z,21.60
2019-05-11T04:04:23.890Z,23.30
2019-05-11T04:04:46.101Z,19.60
2019-05-11T04:05:23.905Z,23.10
2019-05-11T04:06:23.926Z,19.60
2019-05-11T04:07:14.968Z,20.70
2019-05-11T04:07:23.940Z,21.60
2019-05-11T04:08:23.952Z,20.80
2019-05-11T04:09:23.973Z,19.40
2019-05-11T04:09:43.871Z,20.57
2019-05-11T04:10:25.302Z,21.40
2019-05-11T04:11:24.003Z,19.80
2019-05-11T04:12:12.955Z,17.33
2019-05-11T04:12:33.986Z,23.60
2019-05-11T04:13:24.042Z,22.70
2019-05-11T04:14:24.048Z,19.10
2019-05-11T04:14:41.969Z,19.33
2019-05-11T04:15:24.071Z,20.50
2019-05-11T04:16:24.080Z,22.20
2019-05-11T04:17:10.835Z,20.43
2019-05-11T04:17:24.097Z,20.80
2019-05-11T04:18:24.114Z,20.50
2019-05-11T04:19:24.152Z,20.80
2019-05-11T04:19:39.718Z,20.47
2019-05-11T04:20:24.155Z,22.30
2019-05-11T04:21:24.165Z,19.00
2019-05-11T04:22:08.712Z,17.90
2019-05-11T04:22:24.177Z,24.60
2019-05-11T04:23:24.207Z,20.50
2019-05-11T04:24:24.214Z,20.40
2019-05-11T04:24:37.626Z,19.50
2019-05-11T04:25:24.226Z,21.70
2019-05-11T04:26:24.252Z,22.00
2019-05-11T04:27:06.715Z,20.13
2019-05-11T04:27:24.264Z,21.50
2019-05-11T04:28:24.276Z,23.10
2019-05-11T04:29:24.289Z,23.70
2019-05-11T04:29:35.795Z,20.30
2019-05-11T04:30:24.305Z,21.60
2019-05-11T04:31:24.321Z,22.40
2019-05-11T04:32:04.805Z,20.97
2019-05-11T04:32:24.343Z,23.90
2019-05-11T04:33:24.353Z,22.60
2019-05-11T04:34:24.384Z,23.80
2019-05-11T04:34:34.002Z,21.53
2019-05-11T04:35:24.412Z,20.90
2019-05-11T04:36:24.541Z,22.40
2019-05-11T04:37:02.978Z,20.10
2019-05-11T04:37:24.424Z,23.10
2019-05-11T04:38:24.442Z,20.80
2019-05-11T04:39:24.452Z,26.20
2019-05-11T04:39:31.869Z,20.93
2019-05-11T04:40:24.469Z,26.60
2019-05-11T04:41:24.485Z,24.40
2019-05-11T04:42:00.858Z,21.67
2019-05-11T04:42:24.503Z,23.70
2019-05-11T04:43:24.518Z,22.00
2019-05-11T04:44:24.533Z,24.00
2019-05-11T04:44:29.819Z,22.43
2019-05-11T04:45:24.547Z,23.70
2019-05-11T04:46:24.609Z,22.40
2019-05-11T04:46:58.740Z,22.07
2019-05-11T04:47:24.577Z,20.60
2019-05-11T04:48:24.598Z,22.30
2019-05-11T04:49:24.622Z,20.50
2019-05-11T04:49:27.632Z,22.27
2019-05-11T04:50:24.685Z,24.60
2019-05-11T04:51:24.649Z,23.20
2019-05-11T04:51:56.520Z,19.83
2019-05-11T04:52:24.664Z,20.00
2019-05-11T04:53:24.675Z,21.40
2019-05-11T04:54:24.725Z,23.90
2019-05-11T04:54:25.518Z,20.53
2019-05-11T04:55:24.722Z,24.60
2019-05-11T04:56:24.811Z,21.20
2019-05-11T04:56:54.495Z,20.03
2019-05-11T04:57:24.754Z,21.50
2019-05-11T04:58:24.757Z,24.30
2019-05-11T04:59:23.371Z,21.10
2019-05-11T04:59:24.778Z,21.50
2019-05-11T05:00:24.793Z,21.40
2019-05-11T05:01:24.914Z,23.60
2019-05-11T05:01:52.274Z,24.53
2019-05-11T05:02:27.268Z,23.10
2019-05-11T05:03:39.853Z,25.20
2019-05-11T05:04:21.140Z,19.40
2019-05-11T05:04:24.908Z,24.30
2019-05-11T05:05:24.960Z,20.40
2019-05-11T05:06:24.940Z,23.30
2019-05-11T05:06:59.380Z,20.80
2019-05-11T05:07:24.901Z,22.30
2019-05-11T05:08:26.378Z,21.30
2019-05-11T05:09:20.712Z,20.30
2019-05-11T05:09:25.032Z,24.60
2019-05-11T05:10:24.956Z,22.10
2019-05-11T05:11:24.974Z,24.30
2019-05-11T05:11:49.881Z,19.87
2019-05-11T05:12:24.990Z,20.10
2019-05-11T05:13:29.280Z,24.90
2019-05-11T05:14:21.071Z,20.67
2019-05-11T05:14:25.027Z,20.00
2019-05-11T05:15:25.036Z,22.10
2019-05-11T05:16:25.065Z,23.90
2019-05-11T05:16:50.225Z,19.20
2019-05-11T05:17:25.064Z,21.20
2019-05-11T05:18:25.090Z,22.40
2019-05-11T05:19:19.217Z,22.00
2019-05-11T05:19:25.951Z,23.00
2019-05-11T05:20:25.115Z,21.70
2019-05-11T05:21:25.128Z,22.50
2019-05-11T05:21:48.321Z,21.67
2019-05-11T05:22:27.894Z,22.50
2019-05-11T05:23:25.165Z,22.90
2019-05-11T05:24:17.302Z,21.57
2019-05-11T05:24:25.183Z,23.00
2019-05-11T05:25:25.264Z,21.30
2019-05-11T05:26:25.231Z,20.80
2019-05-11T05:26:46.295Z,20.57
2019-05-11T05:27:25.246Z,24.30
2019-05-11T05:28:25.264Z,24.60
2019-05-11T05:29:15.194Z,22.27
2019-05-11T05:29:25.276Z,21.90
2019-05-11T05:30:25.280Z,22.70
2019-05-11T05:31:25.296Z,22.30
2019-05-11T05:31:44.115Z,20.13
2019-05-11T05:32:25.314Z,20.90
2019-05-11T05:33:25.328Z,24.20
2019-05-11T05:34:13.061Z,22.00
2019-05-11T05:34:25.348Z,21.70
2019-05-11T05:35:25.406Z,20.00
2019-05-11T05:36:25.376Z,23.20
2019-05-11T05:36:42.052Z,20.20
2019-05-11T05:37:25.407Z,20.00
2019-05-11T05:38:25.418Z,21.40
2019-05-11T05:39:11.059Z,20.03
2019-05-11T05:39:25.432Z,20.70
2019-05-11T05:40:25.452Z,20.30
2019-05-11T05:41:25.462Z,21.50
2019-05-11T05:41:40.052Z,18.77
2019-05-11T05:42:25.495Z,20.00
2019-05-11T05:43:28.326Z,22.80
2019-05-11T05:44:08.922Z,20.97
2019-05-11T05:44:27.655Z,22.50
2019-05-11T05:45:25.529Z,27.50
2019-05-11T05:46:25.554Z,23.00
2019-05-11T05:46:37.931Z,18.63
2019-05-11T05:47:25.559Z,23.50
2019-05-11T05:48:25.579Z,22.20
2019-05-11T05:49:06.910Z,19.90
2019-05-11T05:49:25.597Z,23.00
2019-05-11T05:50:25.616Z,23.40
2019-05-11T05:51:25.627Z,22.10
2019-05-11T05:51:58.190Z,20.90
2019-05-11T05:52:25.644Z,23.90
2019-05-11T05:53:25.689Z,22.80
2019-05-11T05:54:25.678Z,22.80
2019-05-11T05:54:26.297Z,20.10
2019-05-11T05:55:25.693Z,22.70
2019-05-11T05:56:25.711Z,23.00
2019-05-11T05:56:55.283Z,21.70
2019-05-11T05:57:25.722Z,23.50
2019-05-11T05:58:25.744Z,25.00
2019-05-11T05:59:24.281Z,20.50
2019-05-11T05:59:25.764Z,23.20
2019-05-11T06:00:25.776Z,22.10
2019-05-11T06:01:25.794Z,23.50
2019-05-11T06:01:53.272Z,20.67
2019-05-11T06:02:25.806Z,24.00
2019-05-11T06:03:25.821Z,22.80
2019-05-11T06:04:22.163Z,20.80
2019-05-11T06:04:25.858Z,25.30
2019-05-11T06:05:25.856Z,22.60
2019-05-11T06:06:25.877Z,24.30
2019-05-11T06:06:51.374Z,19.87
2019-05-11T06:07:25.895Z,23.00
2019-05-11T06:08:25.910Z,21.60
2019-05-11T06:09:20.474Z,22.70
2019-05-11T06:09:25.934Z,21.00
2019-05-11T06:10:25.941Z,25.20
2019-05-11T06:11:25.958Z,25.70
2019-05-11T06:11:49.459Z,20.67
2019-05-11T06:12:25.981Z,23.40
2019-05-11T06:13:43.552Z,26.40
2019-05-11T06:14:18.352Z,21.30
2019-05-11T06:14:26.013Z,23.20
2019-05-11T06:15:26.027Z,22.70
2019-05-11T06:16:26.035Z,24.70
2019-05-11T06:16:47.329Z,21.73
2019-05-11T06:17:26.059Z,23.90
2019-05-11T06:18:26.070Z,26.30
2019-05-11T06:19:16.227Z,21.53
2019-05-11T06:19:26.097Z,26.80
2019-05-11T06:20:26.110Z,26.90
2019-05-11T06:21:26.133Z,28.00
2019-05-11T06:21:45.213Z,21.20
2019-05-11T06:22:26.139Z,25.40
2019-05-11T06:23:26.156Z,24.20
2019-05-11T06:24:14.107Z,22.90
2019-05-11T06:24:26.178Z,25.40
2019-05-11T06:25:26.203Z,24.80
2019-05-11T06:26:26.204Z,27.00
2019-05-11T06:26:43.087Z,22.17
2019-05-11T06:27:26.235Z,24.30
2019-05-11T06:28:26.247Z,26.40
2019-05-11T06:29:12.094Z,22.57
2019-05-11T06:29:26.267Z,24.60
2019-05-11T06:30:26.274Z,28.30
2019-05-11T06:31:26.297Z,30.80
2019-05-11T06:31:41.075Z,24.20
2019-05-11T06:32:26.314Z,28.50
2019-05-11T06:33:26.324Z,27.40
2019-05-11T06:34:09.966Z,23.13
2019-05-11T06:34:26.344Z,29.00
2019-05-11T06:35:26.359Z,25.90
2019-05-11T06:36:26.375Z,27.60
2019-05-11T06:36:38.997Z,24.07
2019-05-11T06:37:26.397Z,29.70
2019-05-11T06:38:26.413Z,26.10
2019-05-11T06:39:08.660Z,21.43
2019-05-11T06:39:26.426Z,28.40
2019-05-11T06:40:28.543Z,30.80
2019-05-11T06:41:26.475Z,28.10
2019-05-11T06:41:37.857Z,23.27
2019-05-11T06:42:26.517Z,31.80
2019-05-11T06:43:26.497Z,27.90
2019-05-11T06:44:06.972Z,23.20
2019-05-11T06:44:26.514Z,30.80
2019-05-11T06:45:26.529Z,28.30
2019-05-11T06:46:26.550Z,28.30
2019-05-11T06:46:35.874Z,22.63
2019-05-11T06:47:26.567Z,28.20
2019-05-11T06:48:26.585Z,28.70
2019-05-11T06:49:04.951Z,23.00
2019-05-11T06:49:26.604Z,29.50
2019-05-11T06:50:26.616Z,28.30
2019-05-11T06:51:26.633Z,28.50
2019-05-11T06:51:33.864Z,23.50
2019-05-11T06:52:26.647Z,28.90
2019-05-11T06:53:26.669Z,28.30
2019-05-11T06:54:02.840Z,23.87
2019-05-11T06:54:26.683Z,28.40
2019-05-11T06:55:26.702Z,30.80
2019-05-11T06:56:26.778Z,26.90
2019-05-11T06:56:31.845Z,22.57
2019-05-11T06:57:26.731Z,28.80
2019-05-11T06:58:26.753Z,27.10
2019-05-11T06:59:00.699Z,23.77
2019-05-11T06:59:26.769Z,27.20
2019-05-11T07:00:26.782Z,28.20
2019-05-11T07:01:26.860Z,26.70
2019-05-11T07:01:29.625Z,23.83
2019-05-11T07:02:26.816Z,30.40
2019-05-11T07:03:26.834Z,26.20
2019-05-11T07:03:58.583Z,22.27
2019-05-11T07:04:26.855Z,28.00
2019-05-11T07:05:26.929Z,29.60
2019-05-11T07:06:30.368Z,27.00
2019-05-11T07:06:30.472Z,20.73
2019-05-11T07:07:26.905Z,26.50
2019-05-11T07:08:26.933Z,27.00
2019-05-11T07:08:58.208Z,23.00
2019-05-11T07:09:26.936Z,25.70
2019-05-11T07:10:26.958Z,24.70
2019-05-11T07:11:26.970Z,24.40
2019-05-11T07:11:27.209Z,21.77
2019-05-11T07:12:27.789Z,24.30
2019-05-11T07:13:27.018Z,26.20
2019-05-11T07:13:56.201Z,21.70
2019-05-11T07:14:27.022Z,26.00
2019-05-11T07:15:27.042Z,26.20
2019-05-11T07:16:25.191Z,22.13
2019-05-11T07:16:27.057Z,23.90
2019-05-11T07:17:27.071Z,26.80
2019-05-11T07:18:27.093Z,27.50
2019-05-11T07:18:54.170Z,20.13
2019-05-11T07:19:27.110Z,28.70
2019-05-11T07:20:27.123Z,23.90
2019-05-11T07:21:23.070Z,21.90
2019-05-11T07:21:27.155Z,29.50
2019-05-11T07:22:27.161Z,26.20
2019-05-11T07:23:27.171Z,25.80
2019-05-11T07:23:52.053Z,19.20
2019-05-11T07:24:27.190Z,22.10
2019-05-11T07:25:27.210Z,24.70
2019-05-11T07:26:20.939Z,18.57
2019-05-11T07:26:27.229Z,22.90
2019-05-11T07:27:27.246Z,23.00
2019-05-11T07:28:27.261Z,27.00
2019-05-11T07:28:49.984Z,19.37
2019-05-11T07:29:27.278Z,22.70
2019-05-11T07:30:27.295Z,22.90
2019-05-11T07:31:18.837Z,20.03
2019-05-11T07:31:27.315Z,24.10
2019-05-11T07:32:29.385Z,25.90
2019-05-11T07:33:28.682Z,27.50
2019-05-11T07:33:48.661Z,20.93
2019-05-11T07:34:27.831Z,24.20
2019-05-11T07:35:27.960Z,24.40
2019-05-11T07:36:17.868Z,20.13
2019-05-11T07:36:28.253Z,25.40
2019-05-11T07:37:27.961Z,26.30
2019-05-11T07:38:27.972Z,24.80
2019-05-11T07:38:48.736Z,20.80
2019-05-11T07:39:27.894Z,25.60
2019-05-11T07:40:28.005Z,24.70
2019-05-11T07:41:17.776Z,21.80
2019-05-11T07:41:28.092Z,27.50
2019-05-11T07:42:28.608Z,26.20
2019-05-11T07:43:28.738Z,26.70
2019-05-11T07:43:48.511Z,21.80
2019-05-11T07:44:37.568Z,25.80
2019-05-11T07:45:28.325Z,30.70
2019-05-11T07:46:18.219Z,22.33
2019-05-11T07:46:28.721Z,26.40
2019-05-11T07:47:27.907Z,28.10
2019-05-11T07:48:28.019Z,28.40
2019-05-11T07:48:48.036Z,22.30
2019-05-11T07:49:29.223Z,27.90
2019-05-11T07:50:28.353Z,28.00
2019-05-11T07:51:18.313Z,22.33
2019-05-11T07:51:28.711Z,28.30
2019-05-11T07:52:28.758Z,28.40
2019-05-11T07:53:28.033Z,29.20
2019-05-11T07:53:48.692Z,21.30
2019-05-11T07:54:28.208Z,29.00
2019-05-11T07:55:28.305Z,29.30
2019-05-11T07:56:18.807Z,23.47
2019-05-11T07:56:28.497Z,28.00
2019-05-11T07:57:28.401Z,30.70
2019-05-11T07:58:28.500Z,29.60
2019-05-11T07:58:48.183Z,24.83
2019-05-11T07:59:28.962Z,31.30
2019-05-11T08:00:28.149Z,31.20
2019-05-11T08:01:18.839Z,27.10
2019-05-11T08:01:28.350Z,98.10
2019-05-11T08:02:29.240Z,47.20
2019-05-11T08:03:28.472Z,115.40
2019-05-11T08:03:48.507Z,56.83
2019-05-11T08:04:28.758Z,33.10
2019-05-11T08:05:28.501Z,46.70
2019-05-11T08:06:18.357Z,23.70
2019-05-11T08:06:28.623Z,34.30
2019-05-11T08:07:28.503Z,29.60
2019-05-11T08:08:28.432Z,31.00
2019-05-11T08:08:49.088Z,26.10
2019-05-11T08:09:28.070Z,33.50
2019-05-11T08:10:28.261Z,33.50
2019-05-11T08:11:18.469Z,27.13
2019-05-11T08:11:31.386Z,34.00
2019-05-11T08:12:28.616Z,34.40
2019-05-11T08:13:28.382Z,32.70
2019-05-11T08:13:48.177Z,23.83
2019-05-11T08:14:28.822Z,31.20
2019-05-11T08:15:28.467Z,32.40
2019-05-11T08:16:18.520Z,21.97
2019-05-11T08:16:28.735Z,30.50
2019-05-11T08:17:28.633Z,30.60
2019-05-11T08:18:28.410Z,29.30
2019-05-11T08:18:48.284Z,23.40
2019-05-11T08:19:28.429Z,29.10
2019-05-11T08:20:28.266Z,29.60
2019-05-11T08:21:17.980Z,24.87
2019-05-11T08:21:28.539Z,33.60
2019-05-11T08:22:28.547Z,29.80
2019-05-11T08:23:28.658Z,28.80
2019-05-11T08:23:48.303Z,25.13
2019-05-11T08:24:28.566Z,29.80
2019-05-11T08:25:28.763Z,30.10
2019-05-11T08:26:19.058Z,22.47
2019-05-11T08:26:28.502Z,29.60
2019-05-11T08:27:28.639Z,31.70
2019-05-11T08:28:28.859Z,30.80
2019-05-11T08:28:48.703Z,23.13
2019-05-11T08:29:28.285Z,30.40
2019-05-11T08:30:28.302Z,30.50
2019-05-11T08:31:18.762Z,23.83
2019-05-11T08:31:28.320Z,31.70
2019-05-11T08:32:28.800Z,30.40
2019-05-11T08:33:28.530Z,34.40
2019-05-11T08:33:48.245Z,23.10
2019-05-11T08:34:28.706Z,31.80
2019-05-11T08:35:31.224Z,29.70
2019-05-11T08:36:18.432Z,21.97
2019-05-11T08:36:29.021Z,29.90
2019-05-11T08:37:28.590Z,34.40
2019-05-11T08:38:28.658Z,33.20
2019-05-11T08:38:48.290Z,24.10
2019-05-11T08:39:28.971Z,28.30
2019-05-11T08:40:28.984Z,25.10
2019-05-11T08:41:18.432Z,23.70
2019-05-11T08:41:28.487Z,26.70
2019-05-11T08:42:29.036Z,29.50
2019-05-11T08:43:28.684Z,27.10
2019-05-11T08:43:48.160Z,23.87
2019-05-11T08:44:28.858Z,27.00
2019-05-11T08:45:28.555Z,27.60
2019-05-11T08:46:18.496Z,22.03
2019-05-11T08:46:28.570Z,27.20
2019-05-11T08:47:28.588Z,25.50
2019-05-11T08:48:28.605Z,28.50
2019-05-11T08:48:48.020Z,21.60
2019-05-11T08:49:28.897Z,27.70
2019-05-11T08:50:28.650Z,27.90
2019-05-11T08:51:18.742Z,21.43
2019-05-11T08:51:28.658Z,24.60
2019-05-11T08:52:28.670Z,26.90
2019-05-11T08:53:28.687Z,26.80
2019-05-11T08:53:48.176Z,21.07
2019-05-11T08:54:28.993Z,26.10
2019-05-11T08:55:29.115Z,23.20
2019-05-11T08:56:18.948Z,22.83
2019-05-11T08:56:29.008Z,24.00
2019-05-11T08:57:28.755Z,28.10
2019-05-11T08:58:28.791Z,28.10
2019-05-11T08:58:49.252Z,23.30
2019-05-11T08:59:28.790Z,24.60
2019-05-11T09:00:28.806Z,27.20
2019-05-11T09:01:18.620Z,23.37
2019-05-11T09:01:28.909Z,24.00
2019-05-11T09:02:28.852Z,28.10
2019-05-11T09:03:28.855Z,24.70
2019-05-11T09:03:47.890Z,24.17
2019-05-11T09:04:29.071Z,26.10
2019-05-11T09:05:28.888Z,27.00
2019-05-11T09:06:17.970Z,22.27
2019-05-11T09:06:28.908Z,25.60
2019-05-11T09:07:28.927Z,55.90
2019-05-11T09:08:28.947Z,28.80
2019-05-11T09:08:49.345Z,22.83
2019-05-11T09:09:28.963Z,26.20
2019-05-11T09:10:28.972Z,27.10
2019-05-11T09:11:19.059Z,23.43